sensor_id;sensor_type;location;lat;lon;timestamp;P1;durP1;ratioP1;P2;durP2;ratioP2
30096;SDS011;16915;51.466;3.610;2023-03-01T00:01:24;11.20;;;6.97;;
30096;SDS011;16915;51.466;3.610;2023-03-01T00:03:52;12.00;;;7.43;;
30096;SDS011;16915;51.466;3.610;2023-03-01T00:06:19;9.68;;;7.43;;
30096;SDS011;16915;51.466;3.610;2023-03-01T00:08:45;13.13;;;8.63;;
30096;SDS011;16915;51.466;3.610;2023-03-01T00:11:15;10.05;;;8.02;;
30096;SDS011;16915;51.466;3.610;2023-03-01T00:13:46;14.43;;;8.20;;
30096;SDS011;16915;51.466;3.610;2023-03-01T00:16:21;12.88;;;8.55;;
30096;SDS011;16915;51.466;3.610;2023-03-01T00:18:48;11.63;;;8.63;;
30096;SDS011;16915;51.466;3.610;2023-03-01T00:21:15;12.60;;;8.73;;
30096;SDS011;16915;51.466;3.610;2023-03-01T00:23:41;13.75;;;8.88;;
30096;SDS011;16915;51.466;3.610;2023-03-01T00:26:07;13.90;;;8.30;;
30096;SDS011;16915;51.466;3.610;2023-03-01T00:28:35;15.25;;;9.27;;
30096;SDS011;16915;51.466;3.610;2023-03-01T00:31:04;13.15;;;8.52;;
30096;SDS011;16915;51.466;3.610;2023-03-01T00:33:35;17.63;;;8.95;;
30096;SDS011;16915;51.466;3.610;2023-03-01T00:36:01;12.43;;;8.63;;
30096;SDS011;16915;51.466;3.610;2023-03-01T00:38:28;13.68;;;8.82;;
30096;SDS011;16915;51.466;3.610;2023-03-01T00:40:54;13.85;;;9.32;;
30096;SDS011;16915;51.466;3.610;2023-03-01T00:43:19;12.30;;;9.20;;
30096;SDS011;16915;51.466;3.610;2023-03-01T00:45:45;9.85;;;8.35;;
30096;SDS011;16915;51.466;3.610;2023-03-01T00:48:10;12.70;;;7.95;;
30096;SDS011;16915;51.466;3.610;2023-03-01T00:50:36;17.90;;;9.65;;
30096;SDS011;16915;51.466;3.610;2023-03-01T00:53:02;14.35;;;8.88;;
30096;SDS011;16915;51.466;3.610;2023-03-01T00:55:27;12.40;;;8.93;;
30096;SDS011;16915;51.466;3.610;2023-03-01T00:57:53;14.40;;;8.68;;
30096;SDS011;16915;51.466;3.610;2023-03-01T01:00:19;16.85;;;9.43;;
30096;SDS011;16915;51.466;3.610;2023-03-01T01:02:45;14.35;;;8.65;;
30096;SDS011;16915;51.466;3.610;2023-03-01T01:05:11;15.05;;;8.90;;
30096;SDS011;16915;51.466;3.610;2023-03-01T01:07:37;12.13;;;8.27;;
30096;SDS011;16915;51.466;3.610;2023-03-01T01:10:03;15.82;;;9.52;;
30096;SDS011;16915;51.466;3.610;2023-03-01T01:12:29;13.48;;;9.60;;
30096;SDS011;16915;51.466;3.610;2023-03-01T01:14:54;12.85;;;9.00;;
30096;SDS011;16915;51.466;3.610;2023-03-01T01:17:20;12.52;;;9.48;;
30096;SDS011;16915;51.466;3.610;2023-03-01T01:19:46;14.40;;;10.05;;
30096;SDS011;16915;51.466;3.610;2023-03-01T01:22:11;17.23;;;9.73;;
30096;SDS011;16915;51.466;3.610;2023-03-01T01:24:37;13.73;;;9.32;;
30096;SDS011;16915;51.466;3.610;2023-03-01T01:27:02;18.30;;;10.45;;
30096;SDS011;16915;51.466;3.610;2023-03-01T01:29:28;16.05;;;10.80;;
30096;SDS011;16915;51.466;3.610;2023-03-01T01:31:53;15.70;;;10.48;;
30096;SDS011;16915;51.466;3.610;2023-03-01T01:34:19;15.23;;;10.00;;
30096;SDS011;16915;51.466;3.610;2023-03-01T01:36:50;15.13;;;10.38;;
30096;SDS011;16915;51.466;3.610;2023-03-01T01:39:18;15.80;;;10.23;;
30096;SDS011;16915;51.466;3.610;2023-03-01T01:41:45;14.13;;;10.68;;
30096;SDS011;16915;51.466;3.610;2023-03-01T01:46:54;14.35;;;9.90;;
30096;SDS011;16915;51.466;3.610;2023-03-01T01:49:37;26.42;;;11.63;;
30096;SDS011;16915;51.466;3.610;2023-03-01T01:52:27;14.88;;;10.13;;
30096;SDS011;16915;51.466;3.610;2023-03-01T01:55:03;16.73;;;11.10;;
30096;SDS011;16915;51.466;3.610;2023-03-01T01:57:40;20.17;;;11.32;;
30096;SDS011;16915;51.466;3.610;2023-03-01T02:00:11;16.02;;;10.90;;
30096;SDS011;16915;51.466;3.610;2023-03-01T02:02:50;16.35;;;10.52;;
30096;SDS011;16915;51.466;3.610;2023-03-01T02:08:15;21.60;;;11.82;;
30096;SDS011;16915;51.466;3.610;2023-03-01T02:10:43;17.55;;;11.05;;
30096;SDS011;16915;51.466;3.610;2023-03-01T02:13:10;20.42;;;12.00;;
30096;SDS011;16915;51.466;3.610;2023-03-01T02:15:36;17.77;;;11.10;;
30096;SDS011;16915;51.466;3.610;2023-03-01T02:18:04;20.20;;;11.18;;
30096;SDS011;16915;51.466;3.610;2023-03-01T02:20:33;20.27;;;11.70;;
30096;SDS011;16915;51.466;3.610;2023-03-01T02:23:13;20.95;;;12.15;;
30096;SDS011;16915;51.466;3.610;2023-03-01T02:30:40;17.98;;;11.27;;
30096;SDS011;16915;51.466;3.610;2023-03-01T02:33:27;18.50;;;11.88;;
30096;SDS011;16915;51.466;3.610;2023-03-01T02:35:54;20.30;;;11.95;;
30096;SDS011;16915;51.466;3.610;2023-03-01T02:38:20;19.15;;;12.15;;
30096;SDS011;16915;51.466;3.610;2023-03-01T02:40:47;18.35;;;12.38;;
30096;SDS011;16915;51.466;3.610;2023-03-01T02:43:15;19.38;;;12.05;;
30096;SDS011;16915;51.466;3.610;2023-03-01T02:45:52;19.40;;;12.30;;
30096;SDS011;16915;51.466;3.610;2023-03-01T02:48:18;19.67;;;12.32;;
30096;SDS011;16915;51.466;3.610;2023-03-01T02:56:07;23.40;;;12.85;;
30096;SDS011;16915;51.466;3.610;2023-03-01T02:58:37;16.83;;;9.27;;
30096;SDS011;16915;51.466;3.610;2023-03-01T03:01:10;22.95;;;12.45;;
30096;SDS011;16915;51.466;3.610;2023-03-01T03:03:38;20.92;;;12.68;;
30096;SDS011;16915;51.466;3.610;2023-03-01T03:06:03;19.67;;;11.95;;
30096;SDS011;16915;51.466;3.610;2023-03-01T03:08:29;26.38;;;13.57;;
30096;SDS011;16915;51.466;3.610;2023-03-01T03:10:55;27.42;;;13.73;;
30096;SDS011;16915;51.466;3.610;2023-03-01T03:13:21;23.48;;;13.10;;
30096;SDS011;16915;51.466;3.610;2023-03-01T03:15:47;22.10;;;12.80;;
30096;SDS011;16915;51.466;3.610;2023-03-01T03:18:13;20.80;;;13.23;;
30096;SDS011;16915;51.466;3.610;2023-03-01T03:20:41;22.60;;;13.23;;
30096;SDS011;16915;51.466;3.610;2023-03-01T03:23:08;20.58;;;12.93;;
30096;SDS011;16915;51.466;3.610;2023-03-01T03:25:34;22.73;;;13.10;;
30096;SDS011;16915;51.466;3.610;2023-03-01T03:28:02;22.88;;;12.32;;
30096;SDS011;16915;51.466;3.610;2023-03-01T03:30:34;20.08;;;12.98;;
30096;SDS011;16915;51.466;3.610;2023-03-01T03:33:03;22.92;;;13.43;;
30096;SDS011;16915;51.466;3.610;2023-03-01T03:35:31;22.77;;;13.30;;
30096;SDS011;16915;51.466;3.610;2023-03-01T03:38:04;22.83;;;13.35;;
30096;SDS011;16915;51.466;3.610;2023-03-01T03:40:40;20.58;;;12.63;;
30096;SDS011;16915;51.466;3.610;2023-03-01T03:43:08;21.48;;;12.52;;
30096;SDS011;16915;51.466;3.610;2023-03-01T03:45:36;19.88;;;12.48;;
30096;SDS011;16915;51.466;3.610;2023-03-01T03:48:03;25.55;;;13.10;;
30096;SDS011;16915;51.466;3.610;2023-03-01T03:50:29;26.23;;;14.30;;
30096;SDS011;16915;51.466;3.610;2023-03-01T03:52:55;23.20;;;13.10;;
30096;SDS011;16915;51.466;3.610;2023-03-01T03:55:21;25.85;;;13.45;;
30096;SDS011;16915;51.466;3.610;2023-03-01T03:57:47;24.23;;;13.82;;
30096;SDS011;16915;51.466;3.610;2023-03-01T04:00:18;25.75;;;14.80;;
30096;SDS011;16915;51.466;3.610;2023-03-01T04:02:45;29.35;;;15.05;;
30096;SDS011;16915;51.466;3.610;2023-03-01T04:05:12;24.95;;;14.35;;
30096;SDS011;16915;51.466;3.610;2023-03-01T04:07:40;25.85;;;15.13;;
30096;SDS011;16915;51.466;3.610;2023-03-01T04:10:09;26.50;;;14.75;;
30096;SDS011;16915;51.466;3.610;2023-03-01T04:12:37;32.90;;;15.23;;
30096;SDS011;16915;51.466;3.610;2023-03-01T04:15:03;28.88;;;16.25;;
30096;SDS011;16915;51.466;3.610;2023-03-01T04:17:39;29.25;;;15.35;;
30096;SDS011;16915;51.466;3.610;2023-03-01T04:20:06;31.60;;;16.17;;
30096;SDS011;16915;51.466;3.610;2023-03-01T04:22:34;27.30;;;14.82;;
30096;SDS011;16915;51.466;3.610;2023-03-01T04:25:00;27.40;;;15.48;;
30096;SDS011;16915;51.466;3.610;2023-03-01T04:27:26;28.50;;;15.65;;
30096;SDS011;16915;51.466;3.610;2023-03-01T04:29:52;34.75;;;16.10;;
30096;SDS011;16915;51.466;3.610;2023-03-01T04:32:18;28.23;;;15.45;;
30096;SDS011;16915;51.466;3.610;2023-03-01T04:34:43;30.27;;;15.60;;
30096;SDS011;16915;51.466;3.610;2023-03-01T04:37:09;23.35;;;14.75;;
30096;SDS011;16915;51.466;3.610;2023-03-01T04:39:34;31.15;;;14.70;;
30096;SDS011;16915;51.466;3.610;2023-03-01T04:42:10;27.77;;;14.57;;
30096;SDS011;16915;51.466;3.610;2023-03-01T04:44:39;26.73;;;14.38;;
30096;SDS011;16915;51.466;3.610;2023-03-01T04:47:05;26.02;;;14.93;;
30096;SDS011;16915;51.466;3.610;2023-03-01T04:49:31;28.98;;;15.07;;
30096;SDS011;16915;51.466;3.610;2023-03-01T04:51:57;25.55;;;14.95;;
30096;SDS011;16915;51.466;3.610;2023-03-01T04:54:27;27.75;;;13.52;;
30096;SDS011;16915;51.466;3.610;2023-03-01T04:56:53;30.80;;;14.98;;
30096;SDS011;16915;51.466;3.610;2023-03-01T04:59:20;31.90;;;15.27;;
30096;SDS011;16915;51.466;3.610;2023-03-01T05:01:47;31.70;;;16.23;;
30096;SDS011;16915;51.466;3.610;2023-03-01T05:04:13;24.38;;;13.60;;
30096;SDS011;16915;51.466;3.610;2023-03-01T05:06:39;26.45;;;14.50;;
30096;SDS011;16915;51.466;3.610;2023-03-01T05:09:05;26.90;;;15.07;;
30096;SDS011;16915;51.466;3.610;2023-03-01T05:11:31;21.80;;;13.50;;
30096;SDS011;16915;51.466;3.610;2023-03-01T05:14:00;29.23;;;14.30;;
30096;SDS011;16915;51.466;3.610;2023-03-01T05:16:26;21.17;;;13.05;;
30096;SDS011;16915;51.466;3.610;2023-03-01T05:18:52;26.42;;;13.00;;
30096;SDS011;16915;51.466;3.610;2023-03-01T05:21:17;25.20;;;14.02;;
30096;SDS011;16915;51.466;3.610;2023-03-01T05:23:43;24.90;;;13.15;;
30096;SDS011;16915;51.466;3.610;2023-03-01T05:26:09;22.90;;;12.52;;
30096;SDS011;16915;51.466;3.610;2023-03-01T05:28:37;24.80;;;13.57;;
30096;SDS011;16915;51.466;3.610;2023-03-01T05:31:03;20.52;;;12.20;;
30096;SDS011;16915;51.466;3.610;2023-03-01T05:33:34;22.67;;;12.80;;
30096;SDS011;16915;51.466;3.610;2023-03-01T05:36:02;22.73;;;12.07;;
30096;SDS011;16915;51.466;3.610;2023-03-01T05:38:27;20.80;;;12.68;;
30096;SDS011;16915;51.466;3.610;2023-03-01T05:40:53;18.55;;;11.70;;
30096;SDS011;16915;51.466;3.610;2023-03-01T05:43:19;24.73;;;13.05;;
30096;SDS011;16915;51.466;3.610;2023-03-01T05:45:44;22.73;;;12.25;;
30096;SDS011;16915;51.466;3.610;2023-03-01T05:48:10;24.98;;;13.02;;
30096;SDS011;16915;51.466;3.610;2023-03-01T05:50:38;20.83;;;11.57;;
30096;SDS011;16915;51.466;3.610;2023-03-01T05:53:18;23.63;;;12.77;;
30096;SDS011;16915;51.466;3.610;2023-03-01T05:55:46;26.33;;;12.57;;
30096;SDS011;16915;51.466;3.610;2023-03-01T05:58:17;28.25;;;13.50;;
30096;SDS011;16915;51.466;3.610;2023-03-01T06:00:44;26.98;;;13.23;;
30096;SDS011;16915;51.466;3.610;2023-03-01T06:03:11;20.42;;;12.90;;
30096;SDS011;16915;51.466;3.610;2023-03-01T06:05:38;23.38;;;12.57;;
30096;SDS011;16915;51.466;3.610;2023-03-01T06:08:04;25.42;;;12.70;;
30096;SDS011;16915;51.466;3.610;2023-03-01T06:10:31;23.25;;;13.02;;
30096;SDS011;16915;51.466;3.610;2023-03-01T06:12:57;27.23;;;13.98;;
30096;SDS011;16915;51.466;3.610;2023-03-01T06:15:23;26.55;;;14.55;;
30096;SDS011;16915;51.466;3.610;2023-03-01T06:17:49;30.40;;;15.18;;
30096;SDS011;16915;51.466;3.610;2023-03-01T06:20:19;26.48;;;13.40;;
30096;SDS011;16915;51.466;3.610;2023-03-01T06:22:45;19.35;;;11.02;;
30096;SDS011;16915;51.466;3.610;2023-03-01T06:25:12;22.75;;;13.05;;
30096;SDS011;16915;51.466;3.610;2023-03-01T06:27:40;28.58;;;14.77;;
30096;SDS011;16915;51.466;3.610;2023-03-01T06:30:07;26.20;;;13.93;;
30096;SDS011;16915;51.466;3.610;2023-03-01T06:32:34;25.17;;;13.50;;
30096;SDS011;16915;51.466;3.610;2023-03-01T06:35:00;25.88;;;13.77;;
30096;SDS011;16915;51.466;3.610;2023-03-01T06:37:26;27.08;;;14.00;;
30096;SDS011;16915;51.466;3.610;2023-03-01T06:39:51;28.10;;;14.48;;
30096;SDS011;16915;51.466;3.610;2023-03-01T06:42:17;26.95;;;14.88;;
30096;SDS011;16915;51.466;3.610;2023-03-01T06:44:43;29.27;;;14.57;;
30096;SDS011;16915;51.466;3.610;2023-03-01T06:47:09;31.83;;;15.90;;
30096;SDS011;16915;51.466;3.610;2023-03-01T06:49:35;28.55;;;15.55;;
30096;SDS011;16915;51.466;3.610;2023-03-01T06:52:00;32.78;;;15.35;;
30096;SDS011;16915;51.466;3.610;2023-03-01T06:54:26;29.27;;;15.02;;
30096;SDS011;16915;51.466;3.610;2023-03-01T06:56:51;33.00;;;16.40;;
30096;SDS011;16915;51.466;3.610;2023-03-01T06:59:17;36.13;;;16.40;;
30096;SDS011;16915;51.466;3.610;2023-03-01T07:01:43;28.27;;;16.02;;
30096;SDS011;16915;51.466;3.610;2023-03-01T07:04:09;33.55;;;16.85;;
30096;SDS011;16915;51.466;3.610;2023-03-01T07:06:35;36.33;;;16.02;;
30096;SDS011;16915;51.466;3.610;2023-03-01T07:09:01;34.95;;;15.80;;
30096;SDS011;16915;51.466;3.610;2023-03-01T07:11:26;34.10;;;16.67;;
30096;SDS011;16915;51.466;3.610;2023-03-01T07:13:52;30.33;;;16.30;;
30096;SDS011;16915;51.466;3.610;2023-03-01T07:16:17;31.52;;;16.40;;
30096;SDS011;16915;51.466;3.610;2023-03-01T07:18:45;35.08;;;16.92;;
30096;SDS011;16915;51.466;3.610;2023-03-01T07:21:11;32.45;;;16.20;;
30096;SDS011;16915;51.466;3.610;2023-03-01T07:23:38;37.33;;;17.00;;
30096;SDS011;16915;51.466;3.610;2023-03-01T07:26:04;34.95;;;17.33;;
30096;SDS011;16915;51.466;3.610;2023-03-01T07:28:29;37.97;;;17.55;;
30096;SDS011;16915;51.466;3.610;2023-03-01T07:30:58;39.38;;;17.80;;
30096;SDS011;16915;51.466;3.610;2023-03-01T07:33:26;37.53;;;17.40;;
30096;SDS011;16915;51.466;3.610;2023-03-01T07:35:55;36.70;;;17.35;;
30096;SDS011;16915;51.466;3.610;2023-03-01T07:38:24;34.47;;;17.58;;
30096;SDS011;16915;51.466;3.610;2023-03-01T07:40:51;35.53;;;17.90;;
30096;SDS011;16915;51.466;3.610;2023-03-01T07:43:16;36.53;;;16.45;;
30096;SDS011;16915;51.466;3.610;2023-03-01T07:45:42;32.15;;;15.80;;
30096;SDS011;16915;51.466;3.610;2023-03-01T07:48:08;30.95;;;15.07;;
30096;SDS011;16915;51.466;3.610;2023-03-01T07:50:33;32.67;;;15.82;;
30096;SDS011;16915;51.466;3.610;2023-03-01T07:52:59;29.65;;;14.35;;
30096;SDS011;16915;51.466;3.610;2023-03-01T07:55:24;31.50;;;14.73;;
30096;SDS011;16915;51.466;3.610;2023-03-01T07:57:50;28.10;;;14.43;;
30096;SDS011;16915;51.466;3.610;2023-03-01T08:00:15;31.73;;;13.38;;
30096;SDS011;16915;51.466;3.610;2023-03-01T08:02:41;27.88;;;13.85;;
30096;SDS011;16915;51.466;3.610;2023-03-01T08:05:07;23.75;;;13.05;;
30096;SDS011;16915;51.466;3.610;2023-03-01T08:07:34;25.45;;;11.50;;
30096;SDS011;16915;51.466;3.610;2023-03-01T08:10:00;27.17;;;11.43;;
30096;SDS011;16915;51.466;3.610;2023-03-01T08:12:26;21.40;;;10.90;;
30096;SDS011;16915;51.466;3.610;2023-03-01T08:14:53;18.38;;;10.77;;
30096;SDS011;16915;51.466;3.610;2023-03-01T08:17:18;17.65;;;9.18;;
30096;SDS011;16915;51.466;3.610;2023-03-01T08:19:44;17.52;;;9.50;;
30096;SDS011;16915;51.466;3.610;2023-03-01T08:22:10;15.95;;;8.82;;
30096;SDS011;16915;51.466;3.610;2023-03-01T08:24:35;16.20;;;9.50;;
30096;SDS011;16915;51.466;3.610;2023-03-01T08:27:01;16.13;;;9.85;;
30096;SDS011;16915;51.466;3.610;2023-03-01T08:29:27;16.13;;;9.35;;
30096;SDS011;16915;51.466;3.610;2023-03-01T08:31:55;18.08;;;9.27;;
30096;SDS011;16915;51.466;3.610;2023-03-01T08:34:20;16.63;;;9.13;;
30096;SDS011;16915;51.466;3.610;2023-03-01T08:36:46;13.18;;;8.48;;
30096;SDS011;16915;51.466;3.610;2023-03-01T08:39:14;16.10;;;9.02;;
30096;SDS011;16915;51.466;3.610;2023-03-01T08:41:41;14.48;;;9.20;;
30096;SDS011;16915;51.466;3.610;2023-03-01T08:44:07;18.38;;;9.27;;
30096;SDS011;16915;51.466;3.610;2023-03-01T08:46:36;16.33;;;8.75;;
30096;SDS011;16915;51.466;3.610;2023-03-01T08:49:04;16.77;;;9.00;;
30096;SDS011;16915;51.466;3.610;2023-03-01T08:51:30;14.30;;;7.80;;
30096;SDS011;16915;51.466;3.610;2023-03-01T08:53:57;15.45;;;7.43;;
30096;SDS011;16915;51.466;3.610;2023-03-01T08:56:23;12.73;;;6.97;;
30096;SDS011;16915;51.466;3.610;2023-03-01T08:58:48;14.40;;;6.60;;
30096;SDS011;16915;51.466;3.610;2023-03-01T09:01:15;8.32;;;5.75;;
30096;SDS011;16915;51.466;3.610;2023-03-01T09:03:42;5.95;;;4.72;;
30096;SDS011;16915;51.466;3.610;2023-03-01T09:06:08;9.20;;;5.00;;
30096;SDS011;16915;51.466;3.610;2023-03-01T09:08:38;5.78;;;4.55;;
30096;SDS011;16915;51.466;3.610;2023-03-01T09:11:05;4.40;;;3.85;;
30096;SDS011;16915;51.466;3.610;2023-03-01T09:13:32;6.38;;;4.35;;
30096;SDS011;16915;51.466;3.610;2023-03-01T09:15:58;7.65;;;3.97;;
30096;SDS011;16915;51.466;3.610;2023-03-01T09:18:25;4.78;;;3.63;;
30096;SDS011;16915;51.466;3.610;2023-03-01T09:20:50;6.97;;;4.07;;
30096;SDS011;16915;51.466;3.610;2023-03-01T09:23:16;4.10;;;3.25;;
30096;SDS011;16915;51.466;3.610;2023-03-01T09:25:41;5.30;;;3.35;;
30096;SDS011;16915;51.466;3.610;2023-03-01T09:28:07;5.47;;;3.50;;
30096;SDS011;16915;51.466;3.610;2023-03-01T09:30:32;3.67;;;2.78;;
30096;SDS011;16915;51.466;3.610;2023-03-01T09:32:58;3.78;;;2.35;;
30096;SDS011;16915;51.466;3.610;2023-03-01T09:35:24;3.67;;;2.95;;
30096;SDS011;16915;51.466;3.610;2023-03-01T09:37:49;3.53;;;2.22;;
30096;SDS011;16915;51.466;3.610;2023-03-01T09:40:17;3.75;;;3.00;;
30096;SDS011;16915;51.466;3.610;2023-03-01T09:45:25;4.50;;;2.88;;
30096;SDS011;16915;51.466;3.610;2023-03-01T09:47:58;3.47;;;2.50;;
30096;SDS011;16915;51.466;3.610;2023-03-01T09:50:26;3.60;;;2.53;;
30096;SDS011;16915;51.466;3.610;2023-03-01T09:53:01;3.95;;;2.00;;
30096;SDS011;16915;51.466;3.610;2023-03-01T09:55:37;3.78;;;2.60;;
30096;SDS011;16915;51.466;3.610;2023-03-01T10:00:53;2.63;;;2.42;;
30096;SDS011;16915;51.466;3.610;2023-03-01T10:03:28;2.30;;;2.13;;
30096;SDS011;16915;51.466;3.610;2023-03-01T10:11:32;3.40;;;2.75;;
30096;SDS011;16915;51.466;3.610;2023-03-01T10:14:03;2.58;;;2.38;;
30096;SDS011;16915;51.466;3.610;2023-03-01T10:16:57;1.63;;;1.52;;
30096;SDS011;16915;51.466;3.610;2023-03-01T10:19:46;2.25;;;2.05;;
30096;SDS011;16915;51.466;3.610;2023-03-01T10:27:13;2.13;;;2.00;;
30096;SDS011;16915;51.466;3.610;2023-03-01T10:29:46;2.70;;;2.28;;
30096;SDS011;16915;51.466;3.610;2023-03-01T10:32:22;2.80;;;2.00;;
30096;SDS011;16915;51.466;3.610;2023-03-01T10:34:48;3.13;;;2.40;;
30096;SDS011;16915;51.466;3.610;2023-03-01T10:37:18;2.35;;;2.17;;
30096;SDS011;16915;51.466;3.610;2023-03-01T10:42:31;2.55;;;1.98;;
30096;SDS011;16915;51.466;3.610;2023-03-01T10:45:48;3.30;;;2.35;;
30096;SDS011;16915;51.466;3.610;2023-03-01T10:50:40;3.72;;;2.38;;
30096;SDS011;16915;51.466;3.610;2023-03-01T10:53:24;2.92;;;2.40;;
30096;SDS011;16915;51.466;3.610;2023-03-01T10:56:12;4.18;;;2.42;;
30096;SDS011;16915;51.466;3.610;2023-03-01T10:58:40;4.93;;;2.47;;
30096;SDS011;16915;51.466;3.610;2023-03-01T11:03:54;4.35;;;2.47;;
30096;SDS011;16915;51.466;3.610;2023-03-01T11:06:31;4.80;;;2.53;;
30096;SDS011;16915;51.466;3.610;2023-03-01T11:08:57;4.57;;;2.80;;
30096;SDS011;16915;51.466;3.610;2023-03-01T11:11:46;2.92;;;2.53;;
30096;SDS011;16915;51.466;3.610;2023-03-01T11:14:17;4.53;;;2.45;;
30096;SDS011;16915;51.466;3.610;2023-03-01T11:16:47;4.85;;;2.83;;
30096;SDS011;16915;51.466;3.610;2023-03-01T11:19:22;2.40;;;2.20;;
30096;SDS011;16915;51.466;3.610;2023-03-01T11:22:02;3.13;;;2.60;;
30096;SDS011;16915;51.466;3.610;2023-03-01T11:24:34;3.70;;;2.72;;
30096;SDS011;16915;51.466;3.610;2023-03-01T11:27:22;3.33;;;3.00;;
30096;SDS011;16915;51.466;3.610;2023-03-01T11:30:02;3.63;;;3.13;;
30096;SDS011;16915;51.466;3.610;2023-03-01T11:32:38;4.30;;;3.15;;
30096;SDS011;16915;51.466;3.610;2023-03-01T11:35:10;5.65;;;3.28;;
30096;SDS011;16915;51.466;3.610;2023-03-01T11:45:55;3.53;;;2.92;;
30096;SDS011;16915;51.466;3.610;2023-03-01T11:48:48;3.15;;;2.83;;
30096;SDS011;16915;51.466;3.610;2023-03-01T11:51:24;3.33;;;3.03;;
30096;SDS011;16915;51.466;3.610;2023-03-01T11:56:29;3.65;;;3.13;;
30096;SDS011;16915;51.466;3.610;2023-03-01T11:59:13;4.35;;;2.70;;
30096;SDS011;16915;51.466;3.610;2023-03-01T12:04:36;6.15;;;2.83;;
30096;SDS011;16915;51.466;3.610;2023-03-01T12:15:34;3.45;;;3.03;;
30096;SDS011;16915;51.466;3.610;2023-03-01T12:21:03;3.22;;;2.92;;
30096;SDS011;16915;51.466;3.610;2023-03-01T12:23:50;3.80;;;3.45;;
30096;SDS011;16915;51.466;3.610;2023-03-01T12:26:30;3.75;;;3.00;;
30096;SDS011;16915;51.466;3.610;2023-03-01T12:29:23;3.13;;;2.78;;
30096;SDS011;16915;51.466;3.610;2023-03-01T12:37:27;3.38;;;3.08;;
30096;SDS011;16915;51.466;3.610;2023-03-01T12:40:13;4.28;;;2.90;;
30096;SDS011;16915;51.466;3.610;2023-03-01T12:42:51;4.32;;;2.95;;
30096;SDS011;16915;51.466;3.610;2023-03-01T12:51:07;3.28;;;2.85;;
30096;SDS011;16915;51.466;3.610;2023-03-01T12:56:10;3.25;;;3.05;;
30096;SDS011;16915;51.466;3.610;2023-03-01T12:58:40;2.58;;;2.33;;
30096;SDS011;16915;51.466;3.610;2023-03-01T13:17:49;3.50;;;3.13;;
30096;SDS011;16915;51.466;3.610;2023-03-01T13:20:20;3.50;;;3.17;;
30096;SDS011;16915;51.466;3.610;2023-03-01T13:22:49;3.08;;;2.85;;
30096;SDS011;16915;51.466;3.610;2023-03-01T13:25:30;10.35;;;3.47;;
30096;SDS011;16915;51.466;3.610;2023-03-01T13:30:59;4.97;;;3.38;;
30096;SDS011;16915;51.466;3.610;2023-03-01T13:33:33;3.45;;;3.15;;
30096;SDS011;16915;51.466;3.610;2023-03-01T13:36:05;4.60;;;3.38;;
30096;SDS011;16915;51.466;3.610;2023-03-01T13:46:51;4.55;;;3.78;;
30096;SDS011;16915;51.466;3.610;2023-03-01T13:52:30;3.30;;;3.05;;
30096;SDS011;16915;51.466;3.610;2023-03-01T13:55:06;4.33;;;3.77;;
30096;SDS011;16915;51.466;3.610;2023-03-01T13:57:39;3.95;;;3.50;;
30096;SDS011;16915;51.466;3.610;2023-03-01T14:00:07;3.83;;;3.53;;
30096;SDS011;16915;51.466;3.610;2023-03-01T14:02:59;3.47;;;3.20;;
30096;SDS011;16915;51.466;3.610;2023-03-01T14:05:29;4.53;;;3.83;;
30096;SDS011;16915;51.466;3.610;2023-03-01T14:07:55;3.40;;;3.10;;
30096;SDS011;16915;51.466;3.610;2023-03-01T14:10:21;4.47;;;3.50;;
30096;SDS011;16915;51.466;3.610;2023-03-01T14:15:35;4.60;;;3.90;;
30096;SDS011;16915;51.466;3.610;2023-03-01T14:18:08;3.75;;;3.38;;
30096;SDS011;16915;51.466;3.610;2023-03-01T14:20:45;9.90;;;3.55;;
30096;SDS011;16915;51.466;3.610;2023-03-01T14:23:17;7.00;;;3.80;;
30096;SDS011;16915;51.466;3.610;2023-03-01T14:25:48;7.00;;;3.47;;
30096;SDS011;16915;51.466;3.610;2023-03-01T14:30:53;6.03;;;3.78;;
30096;SDS011;16915;51.466;3.610;2023-03-01T14:33:25;6.97;;;4.47;;
30096;SDS011;16915;51.466;3.610;2023-03-01T14:36:01;6.65;;;4.22;;
30096;SDS011;16915;51.466;3.610;2023-03-01T14:41:01;6.80;;;4.05;;
30096;SDS011;16915;51.466;3.610;2023-03-01T14:43:41;5.07;;;3.80;;
30096;SDS011;16915;51.466;3.610;2023-03-01T14:51:36;7.50;;;4.53;;
30096;SDS011;16915;51.466;3.610;2023-03-01T14:54:03;8.13;;;4.20;;
30096;SDS011;16915;51.466;3.610;2023-03-01T14:56:45;5.70;;;4.30;;
30096;SDS011;16915;51.466;3.610;2023-03-01T14:59:11;8.00;;;4.53;;
30096;SDS011;16915;51.466;3.610;2023-03-01T15:01:38;4.53;;;3.97;;
30096;SDS011;16915;51.466;3.610;2023-03-01T15:04:06;6.00;;;4.55;;
30096;SDS011;16915;51.466;3.610;2023-03-01T15:06:35;6.30;;;4.45;;
30096;SDS011;16915;51.466;3.610;2023-03-01T15:09:02;8.00;;;4.30;;
30096;SDS011;16915;51.466;3.610;2023-03-01T15:11:29;5.65;;;4.20;;
30096;SDS011;16915;51.466;3.610;2023-03-01T15:13:56;4.63;;;4.18;;
30096;SDS011;16915;51.466;3.610;2023-03-01T15:16:22;5.80;;;4.00;;
30096;SDS011;16915;51.466;3.610;2023-03-01T15:19:03;7.25;;;3.70;;
30096;SDS011;16915;51.466;3.610;2023-03-01T15:21:34;4.45;;;3.63;;
30096;SDS011;16915;51.466;3.610;2023-03-01T15:26:45;4.55;;;4.15;;
30096;SDS011;16915;51.466;3.610;2023-03-01T15:29:19;5.57;;;4.05;;
30096;SDS011;16915;51.466;3.610;2023-03-01T15:31:54;7.55;;;4.25;;
30096;SDS011;16915;51.466;3.610;2023-03-01T15:36:47;6.53;;;4.13;;
30096;SDS011;16915;51.466;3.610;2023-03-01T15:42:03;7.15;;;4.13;;
30096;SDS011;16915;51.466;3.610;2023-03-01T15:44:31;4.03;;;3.53;;
30096;SDS011;16915;51.466;3.610;2023-03-01T15:46:59;7.63;;;4.25;;
30096;SDS011;16915;51.466;3.610;2023-03-01T15:49:38;7.13;;;4.18;;
30096;SDS011;16915;51.466;3.610;2023-03-01T15:52:10;6.13;;;4.47;;
30096;SDS011;16915;51.466;3.610;2023-03-01T15:54:43;6.47;;;3.80;;
30096;SDS011;16915;51.466;3.610;2023-03-01T15:57:13;3.88;;;3.47;;
30096;SDS011;16915;51.466;3.610;2023-03-01T15:59:40;4.07;;;3.67;;
30096;SDS011;16915;51.466;3.610;2023-03-01T16:02:10;7.60;;;3.70;;
30096;SDS011;16915;51.466;3.610;2023-03-01T16:04:39;5.40;;;3.63;;
30096;SDS011;16915;51.466;3.610;2023-03-01T16:07:05;6.53;;;3.65;;
30096;SDS011;16915;51.466;3.610;2023-03-01T16:09:31;5.28;;;3.65;;
30096;SDS011;16915;51.466;3.610;2023-03-01T16:11:57;6.88;;;4.22;;
30096;SDS011;16915;51.466;3.610;2023-03-01T16:14:23;4.78;;;4.15;;
30096;SDS011;16915;51.466;3.610;2023-03-01T16:16:49;5.05;;;3.97;;
30096;SDS011;16915;51.466;3.610;2023-03-01T16:19:15;4.57;;;3.83;;
30096;SDS011;16915;51.466;3.610;2023-03-01T16:21:41;4.68;;;3.60;;
30096;SDS011;16915;51.466;3.610;2023-03-01T16:24:08;7.25;;;3.88;;
30096;SDS011;16915;51.466;3.610;2023-03-01T16:26:35;5.95;;;3.83;;
30096;SDS011;16915;51.466;3.610;2023-03-01T16:29:02;5.05;;;3.75;;
30096;SDS011;16915;51.466;3.610;2023-03-01T16:31:27;5.45;;;3.65;;
30096;SDS011;16915;51.466;3.610;2023-03-01T16:33:57;5.43;;;3.80;;
30096;SDS011;16915;51.466;3.610;2023-03-01T16:36:25;5.60;;;3.70;;
30096;SDS011;16915;51.466;3.610;2023-03-01T16:38:53;5.03;;;3.67;;
30096;SDS011;16915;51.466;3.610;2023-03-01T16:41:20;5.50;;;3.75;;
30096;SDS011;16915;51.466;3.610;2023-03-01T16:43:47;4.03;;;3.58;;
30096;SDS011;16915;51.466;3.610;2023-03-01T16:46:17;6.22;;;3.97;;
30096;SDS011;16915;51.466;3.610;2023-03-01T16:48:48;7.03;;;3.72;;
30096;SDS011;16915;51.466;3.610;2023-03-01T16:51:14;9.07;;;4.25;;
30096;SDS011;16915;51.466;3.610;2023-03-01T16:53:41;5.53;;;4.07;;
30096;SDS011;16915;51.466;3.610;2023-03-01T16:56:07;4.78;;;3.90;;